createdAt,value
2018-08-06T00:00:27.256Z,80.17
2018-08-06T00:01:27.318Z,80.17
2018-08-06T00:02:27.379Z,81.52
2018-08-06T00:03:27.441Z,79.79
2018-08-06T00:04:27.502Z,80.75
2018-08-06T00:05:27.562Z,81.42
2018-08-06T00:06:27.625Z,81.42
2018-08-06T00:07:27.686Z,82.57
2018-08-06T00:08:27.746Z,82.09
2018-08-06T00:09:27.806Z,81.48
2018-08-06T00:10:27.868Z,81.13
2018-08-06T00:11:28.180Z,81.32
2018-08-06T00:12:27.990Z,81.28
2018-08-06T00:13:28.051Z,82.63
2018-08-06T00:14:28.114Z,82.53
2018-08-06T00:15:28.175Z,82.63
2018-08-06T00:16:28.234Z,82.73
2018-08-06T00:17:28.294Z,82.43
2018-08-06T00:18:28.356Z,82.38
2018-08-06T00:19:28.417Z,82.19
2018-08-06T00:20:28.478Z,81.86
2018-08-06T00:21:28.540Z,82.63
2018-08-06T00:22:28.599Z,82.73
2018-08-06T00:23:28.661Z,82.82
2018-08-06T00:24:28.721Z,82.92
2018-08-06T00:25:28.782Z,83.87
2018-08-06T00:26:28.844Z,83.40
2018-08-06T00:27:28.905Z,84.26
2018-08-06T00:28:28.966Z,84.26
2018-08-06T00:29:29.069Z,82.73
2018-08-06T00:30:29.088Z,82.73
2018-08-06T00:31:29.148Z,83.11
2018-08-06T00:32:29.208Z,83.49
2018-08-06T00:33:29.269Z,83.87
2018-08-06T00:34:29.331Z,84.64
2018-08-06T00:35:29.392Z,84.07
2018-08-06T00:36:29.454Z,84.55
2018-08-06T00:37:29.514Z,83.87
2018-08-06T00:38:29.573Z,83.87
2018-08-06T00:39:29.636Z,83.11
2018-08-06T00:40:29.696Z,83.11
2018-08-06T00:41:29.756Z,83.40
2018-08-06T00:42:29.820Z,83.11
2018-08-06T00:43:29.878Z,84.07
2018-08-06T00:44:29.938Z,83.20
2018-08-06T00:45:30.041Z,82.82
2018-08-06T00:46:30.062Z,84.07
2018-08-06T00:47:30.126Z,83.59
2018-08-06T00:48:30.184Z,84.07
2018-08-06T00:49:30.243Z,84.12
2018-08-06T00:50:30.306Z,84.36
2018-08-06T00:51:30.366Z,85.18
2018-08-06T00:52:30.425Z,85.08
2018-08-06T00:53:30.486Z,84.41
2018-08-06T00:54:30.547Z,84.51
2018-08-06T00:55:30.610Z,85.28
2018-08-06T00:56:30.666Z,85.37
2018-08-06T00:57:30.729Z,84.89
2018-08-06T00:58:30.789Z,85.37
2018-08-06T00:59:30.850Z,84.80
2018-08-06T01:00:30.910Z,84.41
2018-08-06T01:01:30.973Z,85.08
2018-08-06T01:02:31.035Z,85.47
2018-08-06T01:03:31.095Z,85.95
2018-08-06T01:04:31.153Z,85.42
2018-08-06T01:05:31.213Z,86.52
2018-08-06T01:06:31.276Z,87.15
2018-08-06T01:07:31.336Z,86.81
2018-08-06T01:08:31.395Z,87.49
2018-08-06T01:09:31.456Z,86.14
2018-08-06T01:10:31.517Z,86.52
2018-08-06T01:11:31.578Z,87.29
2018-08-06T01:12:31.638Z,87.49
2018-08-06T01:13:31.700Z,86.24
2018-08-06T01:14:31.760Z,86.43
2018-08-06T01:15:31.820Z,87.49
2018-08-06T01:16:31.881Z,87.19
2018-08-06T01:17:31.941Z,87.54
2018-08-06T01:18:32.002Z,86.96
2018-08-06T01:19:32.064Z,87.19
2018-08-06T01:20:32.128Z,87.92
2018-08-06T01:21:32.183Z,87.35
2018-08-06T01:22:32.244Z,88.88
2018-08-06T01:23:32.306Z,87.73
2018-08-06T01:24:32.365Z,88.98
2018-08-06T01:25:32.428Z,87.92
2018-08-06T01:26:32.487Z,87.44
2018-08-06T01:27:32.546Z,87.15
2018-08-06T01:28:32.607Z,88.21
2018-08-06T01:29:32.668Z,87.73
2018-08-06T01:30:32.732Z,88.49
2018-08-06T01:31:32.790Z,89.07
2018-08-06T01:32:32.849Z,88.98
2018-08-06T01:33:32.912Z,88.35
2018-08-06T01:34:32.972Z,88.74
2018-08-06T01:35:33.032Z,89.36
2018-08-06T01:36:33.092Z,89.70
2018-08-06T01:37:33.157Z,89.99
2018-08-06T01:38:33.213Z,89.22
2018-08-06T01:39:33.274Z,89.61
2018-08-06T01:40:33.334Z,89.75
2018-08-06T01:41:33.395Z,88.11
2018-08-06T01:42:33.455Z,87.92
2018-08-06T01:43:33.518Z,88.02
2018-08-06T01:44:33.577Z,88.17
2018-08-06T01:45:33.637Z,87.73
2018-08-06T01:46:33.698Z,87.88
2018-08-06T01:47:33.757Z,88.31
2018-08-06T01:48:33.849Z,88.40
2018-08-06T01:49:33.879Z,87.92
2018-08-06T01:50:33.939Z,88.26
2018-08-06T01:51:33.999Z,88.84
2018-08-06T01:52:34.058Z,89.03
2018-08-06T01:53:34.118Z,89.41
2018-08-06T01:54:34.181Z,89.32
2018-08-06T01:55:34.241Z,89.22
2018-08-06T01:56:34.299Z,89.22
2018-08-06T01:57:34.361Z,90.08
2018-08-06T01:58:34.421Z,88.84
2018-08-06T01:59:34.483Z,89.99
2018-08-06T02:00:34.541Z,89.61
2018-08-06T02:01:34.602Z,89.41
2018-08-06T02:02:34.662Z,88.93
2018-08-06T02:03:34.723Z,89.41
2018-08-06T02:04:34.782Z,89.70
2018-08-06T02:05:34.846Z,90.37
2018-08-06T02:06:34.902Z,91.24
2018-08-06T02:07:34.963Z,91.24
2018-08-06T02:08:35.024Z,90.75
2018-08-06T02:09:35.084Z,90.56
2018-08-06T02:10:35.146Z,90.66
2018-08-06T02:11:35.204Z,91.33
2018-08-06T02:12:35.514Z,90.75
2018-08-06T02:13:35.326Z,91.67
2018-08-06T02:14:35.385Z,91.62
2018-08-06T02:15:35.446Z,91.24
2018-08-06T02:16:35.507Z,91.33
2018-08-06T02:17:35.570Z,91.42
2018-08-06T02:18:35.626Z,92.10
2018-08-06T02:19:35.686Z,91.42
2018-08-06T02:20:35.748Z,92.48
2018-08-06T02:21:35.806Z,92.29
2018-08-06T02:22:35.866Z,91.77
2018-08-06T02:23:35.929Z,92.10
2018-08-06T02:24:35.986Z,92.44
2018-08-06T02:25:36.047Z,91.77
2018-08-06T02:26:36.108Z,92.39
2018-08-06T02:27:36.168Z,92.15
2018-08-06T02:28:36.227Z,92.44
2018-08-06T02:29:36.287Z,92.72
2018-08-06T02:30:36.349Z,92.63
2018-08-06T02:31:36.410Z,92.24
2018-08-06T02:32:36.719Z,93.01
2018-08-06T02:33:36.529Z,92.72
2018-08-06T02:34:36.590Z,93.21
2018-08-06T02:35:36.650Z,94.93
2018-08-06T02:36:36.712Z,94.45
2018-08-06T02:37:36.770Z,93.40
2018-08-06T02:38:36.830Z,92.72
2018-08-06T02:39:36.891Z,93.01
2018-08-06T02:40:36.951Z,93.21
2018-08-06T02:41:37.009Z,93.21
2018-08-06T02:42:37.069Z,93.40
2018-08-06T02:43:37.129Z,92.72
2018-08-06T02:44:37.189Z,92.72
2018-08-06T02:45:37.249Z,93.68
2018-08-06T02:46:37.310Z,94.45
2018-08-06T02:47:37.370Z,94.07
2018-08-06T02:48:37.429Z,93.97
2018-08-06T02:49:37.489Z,94.45
2018-08-06T02:50:37.551Z,94.64
2018-08-06T02:51:37.613Z,93.97
2018-08-06T02:52:37.685Z,94.64
2018-08-06T02:53:37.980Z,94.17
2018-08-06T02:54:37.790Z,93.78
2018-08-06T02:55:37.851Z,93.88
2018-08-06T02:56:37.914Z,92.97
2018-08-06T02:57:37.971Z,95.17
2018-08-06T02:58:38.030Z,95.26
2018-08-06T02:59:38.090Z,94.69
2018-08-06T03:00:38.150Z,95.46
2018-08-06T03:01:38.211Z,96.89
2018-08-06T03:02:38.276Z,96.32
2018-08-06T03:03:38.330Z,96.99
2018-08-06T03:04:38.390Z,97.76
2018-08-06T03:05:38.452Z,96.80
2018-08-06T03:06:38.513Z,96.42
2018-08-06T03:07:38.570Z,95.56
2018-08-06T03:08:38.628Z,96.42
2018-08-06T03:09:38.691Z,96.51
2018-08-06T03:10:38.751Z,96.89
2018-08-06T03:11:38.811Z,96.22
2018-08-06T03:12:38.868Z,96.89
2018-08-06T03:13:38.929Z,96.51
2018-08-06T03:14:38.989Z,97.76
2018-08-06T03:15:39.050Z,98.05
2018-08-06T03:16:39.108Z,98.72
2018-08-06T03:17:39.170Z,97.38
2018-08-06T03:18:39.229Z,96.61
2018-08-06T03:19:39.289Z,96.13
2018-08-06T03:20:39.348Z,96.51
2018-08-06T03:21:39.410Z,96.32
2018-08-06T03:22:39.471Z,96.61
2018-08-06T03:23:39.529Z,97.56
2018-08-06T03:24:39.590Z,97.85
2018-08-06T03:25:39.648Z,97.76
2018-08-06T03:26:39.708Z,96.80
2018-08-06T03:27:39.768Z,97.66
2018-08-06T03:28:39.828Z,96.42
2018-08-06T03:29:39.900Z,95.36
2018-08-06T03:30:39.948Z,95.36
2018-08-06T03:31:40.012Z,95.51
2018-08-06T03:32:40.067Z,95.79
2018-08-06T03:33:40.128Z,96.75
2018-08-06T03:34:40.187Z,98.10
2018-08-06T03:35:40.247Z,98.00
2018-08-06T03:36:40.306Z,98.19
2018-08-06T03:37:40.369Z,97.52
2018-08-06T03:38:40.676Z,98.38
2018-08-06T03:39:40.487Z,97.71
2018-08-06T03:40:40.546Z,97.42
2018-08-06T03:41:40.605Z,98.47
2018-08-06T03:42:40.665Z,97.52
2018-08-06T03:43:40.726Z,98.00
2018-08-06T03:44:40.786Z,98.19
2018-08-06T03:45:40.845Z,98.10
2018-08-06T03:46:40.904Z,98.10
2018-08-06T03:47:40.964Z,96.84
2018-08-06T03:48:41.024Z,96.75
2018-08-06T03:49:41.084Z,96.37
2018-08-06T03:50:41.143Z,97.23
2018-08-06T03:51:41.205Z,97.52
2018-08-06T03:52:41.303Z,96.84
2018-08-06T03:53:41.324Z,97.71
2018-08-06T03:54:41.382Z,97.42
2018-08-06T03:55:41.442Z,97.33
2018-08-06T03:56:41.560Z,97.14
2018-08-06T03:57:41.562Z,97.71
2018-08-06T03:58:41.872Z,97.61
2018-08-06T03:59:41.681Z,97.23
2018-08-06T04:00:41.774Z,98.19
2018-08-06T04:01:41.839Z,98.28
2018-08-06T04:02:41.915Z,98.28
2018-08-06T04:03:41.994Z,98.76
2018-08-06T04:04:41.979Z,97.80
2018-08-06T04:05:42.039Z,97.71
2018-08-06T04:06:42.146Z,98.67
2018-08-06T04:07:42.182Z,98.67
2018-08-06T04:08:42.251Z,98.19
2018-08-06T04:09:42.282Z,98.10
2018-08-06T04:10:42.337Z,99.99
2018-08-06T04:11:42.398Z,98.76
2018-08-06T04:12:42.459Z,98.86
2018-08-06T04:13:42.516Z,98.67
2018-08-06T04:14:42.575Z,99.99
2018-08-06T04:15:42.635Z,99.99
2018-08-06T04:16:42.694Z,99.91
2018-08-06T04:17:42.754Z,99.99
2018-08-06T04:18:42.814Z,99.99
2018-08-06T04:19:42.929Z,99.99
2018-08-06T04:20:42.932Z,99.99
2018-08-06T04:21:42.993Z,99.82
2018-08-06T04:22:43.052Z,99.99
2018-08-06T04:23:43.113Z,99.99
2018-08-06T04:24:43.174Z,99.99
2018-08-06T04:25:43.231Z,99.99
2018-08-06T04:26:43.291Z,99.99
2018-08-06T04:27:43.351Z,99.99
2018-08-06T04:28:43.411Z,99.99
2018-08-06T04:29:43.470Z,99.99
2018-08-06T04:30:43.529Z,99.99
2018-08-06T04:31:43.589Z,99.99
2018-08-06T04:32:43.662Z,99.99
2018-08-06T04:33:43.709Z,99.99
2018-08-06T04:34:43.769Z,99.99
2018-08-06T04:35:43.828Z,99.99
2018-08-06T04:36:43.886Z,99.67
2018-08-06T04:37:43.946Z,99.48
2018-08-06T04:38:44.007Z,99.99
2018-08-06T04:39:44.067Z,99.99
2018-08-06T04:40:44.730Z,99.99
2018-08-06T04:41:44.185Z,99.99
2018-08-06T04:42:44.245Z,99.58
2018-08-06T04:43:44.305Z,99.38
2018-08-06T04:44:44.364Z,99.99
2018-08-06T04:45:44.428Z,99.99
2018-08-06T04:46:44.486Z,99.99
2018-08-06T04:47:44.550Z,99.99
2018-08-06T04:48:44.602Z,99.99
2018-08-06T04:49:44.663Z,99.99
2018-08-06T04:50:44.721Z,99.99
2018-08-06T04:51:44.781Z,99.99
2018-08-06T04:52:44.841Z,99.99
2018-08-06T04:53:44.902Z,99.99
2018-08-06T04:54:44.963Z,99.99
2018-08-06T04:55:45.020Z,99.99
2018-08-06T04:56:45.078Z,99.99
2018-08-06T04:57:45.139Z,99.99
2018-08-06T04:58:45.198Z,99.99
2018-08-06T04:59:45.331Z,99.99
2018-08-06T05:00:45.317Z,99.99
2018-08-06T05:01:45.376Z,99.99
2018-08-06T05:02:45.441Z,99.99
2018-08-06T05:03:45.498Z,99.99
2018-08-06T05:04:45.555Z,99.99
2018-08-06T05:05:45.615Z,99.87
2018-08-06T05:06:45.675Z,99.99
2018-08-06T05:07:45.735Z,98.67
2018-08-06T05:08:45.795Z,99.15
2018-08-06T05:09:45.853Z,99.63
2018-08-06T05:10:45.916Z,98.76
2018-08-06T05:11:45.973Z,98.96
2018-08-06T05:12:46.031Z,99.63
2018-08-06T05:13:46.211Z,99.05
2018-08-06T05:14:46.151Z,99.24
2018-08-06T05:15:46.211Z,98.96
2018-08-06T05:16:46.280Z,98.19
2018-08-06T05:17:46.336Z,98.28
2018-08-06T05:18:46.393Z,98.96
2018-08-06T05:19:46.453Z,98.86
2018-08-06T05:20:46.509Z,98.57
2018-08-06T05:21:46.591Z,97.71
2018-08-06T05:22:46.629Z,98.00
2018-08-06T05:23:46.688Z,98.00
2018-08-06T05:24:46.777Z,97.71
2018-08-06T05:25:46.807Z,98.19
2018-08-06T05:26:46.866Z,98.19
2018-08-06T05:27:46.930Z,98.10
2018-08-06T05:28:46.985Z,97.14
2018-08-06T05:29:47.045Z,97.33
2018-08-06T05:30:47.125Z,97.14
2018-08-06T05:31:47.593Z,98.00
2018-08-06T05:32:47.226Z,97.23
2018-08-06T05:33:47.283Z,97.90
2018-08-06T05:34:47.347Z,97.76
2018-08-06T05:35:47.404Z,97.47
2018-08-06T05:36:47.464Z,97.85
2018-08-06T05:37:47.524Z,97.09
2018-08-06T05:38:47.587Z,97.38
2018-08-06T05:39:47.643Z,97.66
2018-08-06T05:40:47.704Z,98.14
2018-08-06T05:41:47.763Z,97.18
2018-08-06T05:42:47.824Z,97.18
2018-08-06T05:43:47.884Z,96.61
2018-08-06T05:44:47.943Z,96.13
2018-08-06T05:45:48.003Z,96.03
2018-08-06T05:46:48.063Z,96.03
2018-08-06T05:47:48.122Z,96.37
2018-08-06T05:48:48.182Z,95.26
2018-08-06T05:49:48.242Z,96.66
2018-08-06T05:50:48.303Z,96.37
2018-08-06T05:51:48.368Z,94.54
2018-08-06T05:52:48.422Z,94.93
2018-08-06T05:53:48.482Z,93.97
2018-08-06T05:54:48.543Z,95.03
2018-08-06T05:55:48.603Z,94.26
2018-08-06T05:56:48.662Z,93.88
2018-08-06T05:57:48.724Z,94.17
2018-08-06T05:58:48.784Z,94.02
2018-08-06T05:59:48.843Z,93.78
2018-08-06T06:00:48.903Z,93.92
2018-08-06T06:01:49.523Z,94.12
2018-08-06T06:02:49.546Z,93.15
2018-08-06T06:03:49.089Z,92.96
2018-08-06T06:04:49.147Z,93.15
2018-08-06T06:05:49.210Z,92.58
2018-08-06T06:06:49.266Z,92.19
2018-08-06T06:07:49.325Z,92.48
2018-08-06T06:08:49.384Z,91.52
2018-08-06T06:09:49.445Z,92.19
2018-08-06T06:10:49.504Z,92.24
2018-08-06T06:11:49.567Z,92.24
2018-08-06T06:12:49.626Z,91.86
2018-08-06T06:13:49.686Z,91.38
2018-08-06T06:14:49.746Z,91.38
2018-08-06T06:15:50.502Z,90.52
2018-08-06T06:16:49.867Z,90.99
2018-08-06T06:17:49.928Z,91.04
2018-08-06T06:18:49.989Z,90.66
2018-08-06T06:19:50.049Z,90.37
2018-08-06T06:20:50.111Z,90.66
2018-08-06T06:21:50.171Z,92.38
2018-08-06T06:22:50.231Z,91.08
2018-08-06T06:23:50.295Z,90.51
2018-08-06T06:24:50.353Z,88.53
2018-08-06T06:25:50.447Z,87.76
2018-08-06T06:26:50.473Z,87.62
2018-08-06T06:28:50.595Z,87.29
2018-08-06T06:29:50.656Z,89.06
2018-08-06T06:30:50.717Z,88.82
2018-08-06T06:31:50.778Z,89.11
2018-08-06T06:32:50.839Z,89.25
2018-08-06T06:33:50.899Z,89.92
2018-08-06T06:34:50.988Z,89.83
2018-08-06T06:35:51.021Z,89.44
2018-08-06T06:36:51.082Z,89.83
2018-08-06T06:37:51.144Z,89.15
2018-08-06T06:38:51.205Z,89.15
2018-08-06T06:39:51.267Z,88.10
2018-08-06T06:40:51.326Z,86.85
2018-08-06T06:41:51.512Z,85.93
2018-08-06T06:42:51.449Z,84.62
2018-08-06T06:43:51.512Z,84.05
2018-08-06T06:44:51.572Z,83.47
2018-08-06T06:45:51.635Z,83.56
2018-08-06T06:46:51.696Z,84.23
2018-08-06T06:47:51.757Z,84.91
2018-08-06T06:48:51.834Z,84.62
2018-08-06T06:49:51.881Z,84.43
2018-08-06T06:50:51.941Z,84.05
2018-08-06T06:51:52.004Z,83.75
2018-08-06T06:52:52.065Z,83.47
2018-08-06T06:53:52.128Z,83.47
2018-08-06T06:54:52.188Z,84.38
2018-08-06T06:55:52.251Z,83.80
2018-08-06T06:56:52.311Z,83.41
2018-08-06T06:57:52.373Z,83.03
2018-08-06T06:58:52.435Z,82.93
2018-08-06T06:59:52.514Z,82.16
2018-08-06T07:00:52.560Z,81.39
2018-08-06T07:01:52.620Z,80.71
2018-08-06T07:02:52.683Z,80.71
2018-08-06T07:03:52.746Z,80.33
2018-08-06T07:04:52.813Z,80.52
2018-08-06T07:05:52.868Z,80.91
2018-08-06T07:06:52.940Z,80.43
2018-08-06T07:07:52.993Z,80.76
2018-08-06T07:08:53.055Z,80.08
2018-08-06T07:09:53.115Z,79.41
2018-08-06T07:10:53.179Z,79.31
2018-08-06T07:11:53.604Z,78.92
2018-08-06T07:12:53.304Z,78.83
2018-08-06T07:13:53.483Z,78.63
2018-08-06T07:14:53.986Z,77.90
2018-08-06T07:15:53.491Z,77.81
2018-08-06T07:16:53.558Z,76.75
2018-08-06T07:17:53.615Z,75.78
2018-08-06T07:18:53.679Z,75.53
2018-08-06T07:19:53.743Z,75.05
2018-08-06T07:20:53.803Z,75.72
2018-08-06T07:21:53.864Z,75.62
2018-08-06T07:22:53.927Z,76.20
2018-08-06T07:23:53.992Z,75.72
2018-08-06T07:24:54.053Z,75.82
2018-08-06T07:25:54.121Z,75.43
2018-08-06T07:26:54.183Z,74.79
2018-08-06T07:27:54.245Z,73.15
2018-08-06T07:28:54.307Z,73.35
2018-08-06T07:29:54.369Z,73.44
2018-08-06T07:30:54.428Z,72.58
2018-08-06T07:31:54.491Z,71.90
2018-08-06T07:32:54.553Z,71.32
2018-08-06T07:33:54.617Z,71.45
2018-08-06T07:34:54.680Z,70.10
2018-08-06T07:35:54.744Z,70.00
2018-08-06T07:36:54.804Z,70.20
2018-08-06T07:37:54.867Z,71.26
2018-08-06T07:38:54.930Z,70.68
2018-08-06T07:39:54.994Z,69.90
2018-08-06T07:40:55.095Z,70.14
2018-08-06T07:41:55.119Z,69.07
2018-08-06T07:42:55.185Z,68.78
2018-08-06T07:43:55.246Z,69.07
2018-08-06T07:44:55.308Z,68.98
2018-08-06T07:45:55.901Z,67.82
2018-08-06T07:46:56.050Z,68.10
2018-08-06T07:47:55.512Z,68.68
2018-08-06T07:48:56.610Z,69.07
2018-08-06T07:49:56.212Z,68.78
2018-08-06T07:50:56.489Z,68.40
2018-08-06T07:51:56.340Z,68.30
2018-08-06T07:52:56.894Z,68.43
2018-08-06T07:53:55.877Z,68.62
2018-08-06T07:54:55.940Z,68.04
2018-08-06T07:55:56.155Z,67.56
2018-08-06T07:56:56.067Z,67.56
2018-08-06T07:57:56.131Z,67.08
2018-08-06T07:58:56.194Z,66.24
2018-08-06T07:59:56.258Z,66.05
2018-08-06T08:00:56.354Z,65.85
2018-08-06T08:01:56.388Z,67.05
2018-08-06T08:02:56.448Z,65.98
2018-08-06T08:03:56.512Z,65.79
2018-08-06T08:04:56.575Z,65.98
2018-08-06T08:05:56.640Z,66.75
2018-08-06T08:06:57.343Z,65.30
2018-08-06T08:07:57.324Z,63.89
2018-08-06T08:08:57.441Z,63.49
2018-08-06T08:09:57.631Z,63.24
2018-08-06T08:10:56.957Z,62.17
2018-08-06T08:11:57.026Z,62.43
2018-08-06T08:12:57.085Z,61.27
2018-08-06T08:13:57.148Z,61.79
2018-08-06T08:14:57.213Z,61.59
2018-08-06T08:15:57.278Z,61.98
2018-08-06T08:16:57.343Z,61.40
2018-08-06T08:17:57.404Z,61.21
2018-08-06T08:18:57.472Z,61.49
2018-08-06T08:19:57.607Z,61.52
2018-08-06T08:20:57.718Z,61.14
2018-08-06T08:21:57.660Z,60.46
2018-08-06T08:22:57.725Z,59.78
2018-08-06T08:23:57.792Z,60.55
2018-08-06T08:24:57.855Z,60.39
2018-08-06T08:25:57.943Z,60.39
2018-08-06T08:26:57.982Z,60.00
2018-08-06T08:27:58.046Z,59.91
2018-08-06T08:28:58.699Z,59.52
2018-08-06T08:29:58.175Z,59.61
2018-08-06T08:30:58.240Z,59.61
2018-08-06T08:31:58.305Z,59.33
2018-08-06T08:32:58.369Z,59.81
2018-08-06T08:33:59.080Z,59.64
2018-08-06T08:34:58.498Z,59.16
2018-08-06T08:35:58.582Z,58.39
2018-08-06T08:36:58.626Z,58.87
2018-08-06T08:37:58.692Z,59.26
2018-08-06T08:38:58.757Z,58.48
2018-08-06T08:39:58.821Z,58.19
2018-08-06T08:40:58.888Z,58.19
2018-08-06T08:41:58.950Z,58.12
2018-08-06T08:42:59.015Z,58.41
2018-08-06T08:43:59.080Z,57.83
2018-08-06T08:44:59.145Z,57.83
2018-08-06T08:45:59.209Z,57.96
2018-08-06T08:46:59.274Z,57.54
2018-08-06T08:47:59.340Z,57.47
2018-08-06T08:48:59.408Z,57.28
2018-08-06T08:49:59.469Z,56.79
2018-08-06T08:50:59.534Z,56.40
2018-08-06T08:51:59.599Z,56.89
2018-08-06T08:52:59.672Z,56.40
2018-08-06T08:54:00.047Z,56.30
2018-08-06T08:54:59.794Z,56.34
2018-08-06T08:55:59.859Z,56.24
2018-08-06T08:56:59.924Z,56.24
2018-08-06T08:57:59.989Z,56.24
2018-08-06T08:59:00.120Z,55.65
2018-08-06T09:00:00.129Z,55.75
2018-08-06T09:01:00.220Z,55.75
2018-08-06T09:02:00.253Z,55.65
2018-08-06T09:03:00.317Z,56.04
2018-08-06T09:04:00.386Z,56.34
2018-08-06T09:05:00.449Z,56.24
2018-08-06T09:06:00.512Z,55.94
2018-08-06T09:07:00.579Z,55.75
2018-08-06T09:08:00.642Z,55.68
2018-08-06T09:09:00.713Z,55.75
2018-08-06T09:10:00.773Z,55.19
2018-08-06T09:11:00.839Z,55.19
2018-08-06T09:12:00.909Z,55.32
2018-08-06T09:13:00.969Z,54.52
2018-08-06T09:14:01.077Z,55.29
2018-08-06T09:15:01.103Z,55.19
2018-08-06T09:16:01.168Z,54.90
2018-08-06T09:17:01.231Z,54.35
2018-08-06T09:18:01.300Z,54.05
2018-08-06T09:19:01.365Z,54.35
2018-08-06T09:20:01.430Z,54.15
2018-08-06T09:21:01.494Z,54.15
2018-08-06T09:22:01.561Z,53.99
2018-08-06T09:23:01.634Z,53.89
2018-08-06T09:24:01.693Z,53.40
2018-08-06T09:25:01.759Z,53.14
2018-08-06T09:26:01.824Z,52.36
2018-08-06T09:27:01.891Z,52.45
2018-08-06T09:28:01.957Z,52.36
2018-08-06T09:29:02.021Z,52.09
2018-08-06T09:30:02.092Z,52.38
2018-08-06T09:31:02.156Z,52.09
2018-08-06T09:32:02.220Z,51.41
2018-08-06T09:33:02.285Z,51.41
2018-08-06T09:34:02.401Z,51.61
2018-08-06T09:35:02.417Z,51.12
2018-08-06T09:36:02.483Z,51.04
2018-08-06T09:37:02.551Z,50.16
2018-08-06T09:38:02.617Z,50.07
2018-08-06T09:39:02.684Z,50.26
2018-08-06T09:40:02.756Z,50.16
2018-08-06T09:41:02.816Z,50.26
2018-08-06T09:42:02.882Z,50.09
2018-08-06T09:43:02.948Z,49.78
2018-08-06T09:44:03.015Z,49.99
2018-08-06T09:45:03.081Z,50.19
2018-08-06T09:46:03.149Z,49.99
2018-08-06T09:47:03.557Z,49.61
2018-08-06T09:48:03.281Z,49.24
2018-08-06T09:49:03.348Z,49.05
2018-08-06T09:50:03.414Z,49.34
2018-08-06T09:51:03.481Z,49.15
2018-08-06T09:52:04.242Z,49.05
2018-08-06T09:53:03.614Z,48.56
2018-08-06T09:54:03.681Z,48.66
2018-08-06T09:55:03.752Z,48.66
2018-08-06T09:56:03.816Z,48.66
2018-08-06T09:57:04.286Z,47.88
2018-08-06T09:58:03.950Z,47.19
2018-08-06T09:59:04.022Z,47.09
2018-08-06T10:00:04.083Z,47.97
2018-08-06T10:01:04.150Z,47.90
2018-08-06T10:02:04.581Z,47.12
2018-08-06T10:03:04.284Z,47.12
2018-08-06T10:04:04.353Z,47.12
2018-08-06T10:05:04.418Z,46.63
2018-08-06T10:06:04.562Z,46.36
2018-08-06T10:07:04.557Z,46.07
2018-08-06T10:08:04.620Z,45.78
2018-08-06T10:09:04.696Z,45.68
2018-08-06T10:10:04.754Z,45.80
2018-08-06T10:11:04.842Z,45.80
2018-08-06T10:12:04.898Z,45.31
2018-08-06T10:13:04.955Z,44.74
2018-08-06T10:14:05.441Z,44.74
2018-08-06T10:15:05.736Z,44.34
2018-08-06T10:16:05.689Z,44.43
2018-08-06T10:17:05.710Z,44.92
2018-08-06T10:18:05.818Z,44.73
2018-08-06T10:19:05.783Z,44.65
2018-08-06T10:20:05.429Z,43.87
2018-08-06T10:21:05.496Z,44.06
2018-08-06T10:22:05.565Z,43.59
2018-08-06T10:23:05.633Z,43.40
2018-08-06T10:24:05.702Z,43.59
2018-08-06T10:25:05.771Z,43.69
2018-08-06T10:26:05.837Z,43.48
2018-08-06T10:27:05.908Z,43.69
2018-08-06T10:28:05.977Z,43.20
2018-08-06T10:29:06.047Z,42.81
2018-08-06T10:30:06.165Z,42.64
2018-08-06T10:31:06.188Z,41.58
2018-08-06T10:32:06.257Z,41.68
2018-08-06T10:33:06.328Z,42.09
2018-08-06T10:34:06.398Z,40.72
2018-08-06T10:35:06.469Z,40.64
2018-08-06T10:36:06.597Z,40.25
2018-08-06T10:37:07.613Z,40.16
2018-08-06T10:38:06.684Z,41.00
2018-08-06T10:39:07.291Z,41.02
2018-08-06T10:40:06.828Z,40.45
2018-08-06T10:41:06.900Z,38.92
2018-08-06T10:42:06.973Z,38.27
2018-08-06T10:43:07.047Z,36.91
2018-08-06T10:44:07.120Z,36.55
2018-08-06T10:45:07.193Z,35.59
2018-08-06T10:46:07.267Z,35.11
2018-08-06T10:47:07.390Z,34.63
2018-08-06T10:48:07.415Z,34.46
2018-08-06T10:49:08.138Z,34.64
2018-08-06T10:50:07.562Z,33.77
2018-08-06T10:51:07.637Z,33.79
2018-08-06T10:52:07.711Z,32.92
2018-08-06T10:53:07.787Z,32.98
2018-08-06T10:54:07.862Z,33.20
2018-08-06T10:55:07.936Z,33.38
2018-08-06T10:56:08.013Z,33.18
2018-08-06T10:57:08.089Z,33.08
2018-08-06T10:58:08.161Z,33.36
2018-08-06T10:59:08.237Z,33.38
2018-08-06T11:00:08.314Z,32.20
2018-08-06T11:01:08.388Z,32.29
2018-08-06T11:02:08.463Z,33.82
2018-08-06T11:03:08.540Z,34.49
2018-08-06T11:04:08.619Z,33.64
2018-08-06T11:05:08.691Z,32.89
2018-08-06T11:06:08.767Z,33.25
2018-08-06T11:07:08.843Z,34.87
2018-08-06T11:08:08.922Z,35.16
2018-08-06T11:09:08.995Z,35.46
2018-08-06T11:10:09.071Z,35.83
2018-08-06T11:11:09.149Z,36.22
2018-08-06T11:12:09.224Z,34.78
2018-08-06T11:13:09.299Z,33.84
2018-08-06T11:14:09.458Z,33.08
2018-08-06T11:15:09.450Z,31.54
2018-08-06T11:16:09.526Z,31.16
2018-08-06T11:17:09.601Z,30.96
2018-08-06T11:18:09.678Z,30.68
2018-08-06T11:19:09.753Z,30.58
2018-08-06T11:20:09.829Z,30.58
2018-08-06T11:21:09.904Z,30.09
2018-08-06T11:22:09.981Z,30.66
2018-08-06T11:23:10.058Z,30.58
2018-08-06T11:24:10.133Z,31.34
2018-08-06T11:25:10.208Z,31.73
2018-08-06T11:26:10.288Z,30.68
2018-08-06T11:27:10.363Z,30.68
2018-08-06T11:28:10.448Z,30.68
2018-08-06T11:29:10.514Z,29.83
2018-08-06T11:30:10.591Z,29.16
2018-08-06T11:31:10.668Z,29.34
2018-08-06T11:32:10.745Z,28.86
2018-08-06T11:33:10.821Z,29.13
2018-08-06T11:34:10.898Z,29.25
2018-08-06T11:35:10.977Z,28.86
2018-08-06T11:36:11.053Z,29.14
2018-08-06T11:37:11.129Z,29.24
2018-08-06T11:38:11.213Z,29.43
2018-08-06T11:39:11.285Z,30.29
2018-08-06T11:40:11.364Z,31.63
2018-08-06T11:41:11.439Z,31.26
2018-08-06T11:42:11.516Z,30.20
2018-08-06T11:43:11.592Z,29.14
2018-08-06T11:44:11.670Z,29.14
2018-08-06T11:45:11.752Z,28.58
2018-08-06T11:46:11.825Z,29.99
2018-08-06T11:47:11.901Z,31.59
2018-08-06T11:48:11.980Z,33.31
2018-08-06T11:49:12.057Z,33.91
2018-08-06T11:50:12.133Z,32.77
2018-08-06T11:51:12.210Z,32.28
2018-08-06T11:52:12.287Z,32.39
2018-08-06T11:53:12.366Z,32.21
2018-08-06T11:54:12.441Z,30.78
2018-08-06T11:55:12.518Z,29.72
2018-08-06T11:56:12.599Z,29.91
2018-08-06T11:57:12.674Z,29.71
2018-08-06T11:58:12.750Z,29.68
2018-08-06T11:59:12.828Z,32.10
2018-08-06T12:00:12.903Z,32.28
2018-08-06T12:01:13.018Z,32.41
2018-08-06T12:02:13.056Z,31.90
2018-08-06T12:03:13.134Z,33.23
2018-08-06T12:04:13.212Z,33.17
2018-08-06T12:05:13.287Z,31.93
2018-08-06T12:06:13.363Z,30.38
2018-08-06T12:07:13.440Z,29.91
2018-08-06T12:08:13.517Z,29.24
2018-08-06T12:09:13.594Z,28.66
2018-08-06T12:10:13.672Z,29.25
2018-08-06T12:11:13.747Z,27.98
2018-08-06T12:12:13.823Z,27.90
2018-08-06T12:13:13.900Z,27.89
2018-08-06T12:14:13.974Z,27.70
2018-08-06T12:15:14.056Z,28.08
2018-08-06T12:16:14.129Z,27.80
2018-08-06T12:17:14.204Z,27.01
2018-08-06T12:18:14.282Z,27.21
2018-08-06T12:19:14.358Z,27.98
2018-08-06T12:20:14.485Z,27.97
2018-08-06T12:21:14.512Z,28.09
2018-08-06T12:22:14.588Z,28.17
2018-08-06T12:23:14.704Z,29.52
2018-08-06T12:24:14.743Z,29.24
2018-08-06T12:25:14.823Z,29.43
2018-08-06T12:26:15.036Z,29.44
2018-08-06T12:27:14.982Z,30.38
2018-08-06T12:28:15.052Z,29.62
2018-08-06T12:29:15.129Z,29.34
2018-08-06T12:30:15.204Z,28.48
2018-08-06T12:31:15.284Z,28.78
2018-08-06T12:32:15.359Z,27.72
2018-08-06T12:33:15.434Z,28.08
2018-08-06T12:34:15.515Z,28.20
2018-08-06T12:35:15.589Z,27.23
2018-08-06T12:36:15.666Z,26.06
2018-08-06T12:37:15.742Z,26.15
2018-08-06T12:38:15.875Z,25.96
2018-08-06T12:39:15.898Z,26.84
2018-08-06T12:40:15.975Z,27.23
2018-08-06T12:41:16.051Z,27.59
2018-08-06T12:42:16.132Z,27.79
2018-08-06T12:43:16.456Z,27.80
2018-08-06T12:44:16.284Z,26.93
2018-08-06T12:45:16.360Z,26.74
2018-08-06T12:46:16.514Z,26.74
2018-08-06T12:47:16.518Z,26.75
2018-08-06T12:48:16.594Z,27.14
2018-08-06T12:49:16.669Z,27.51
2018-08-06T12:50:16.748Z,27.14
2018-08-06T12:51:16.824Z,27.32
2018-08-06T12:52:16.912Z,26.93
2018-08-06T12:53:16.979Z,27.72
2018-08-06T12:54:17.056Z,27.73